createdAt,value
2022-11-24T00:02:52.326Z,5.11
2022-11-24T00:07:53.974Z,5.06
2022-11-24T00:12:55.547Z,5.04
2022-11-24T00:17:57.081Z,5.00
2022-11-24T00:22:58.615Z,4.86
2022-11-24T00:28:00.086Z,4.75
2022-11-24T00:33:01.692Z,4.73
2022-11-24T00:38:03.132Z,4.70
2022-11-24T00:43:04.596Z,4.62
2022-11-24T00:48:06.182Z,4.57
2022-11-24T00:53:07.749Z,4.56
2022-11-24T00:58:09.203Z,4.58
2022-11-24T01:03:12.171Z,4.62
2022-11-24T01:08:13.693Z,4.55
2022-11-24T01:13:15.309Z,4.58
2022-11-24T01:18:16.806Z,4.59
2022-11-24T01:23:18.287Z,4.54
2022-11-24T01:28:19.805Z,4.48
2022-11-24T01:33:21.310Z,4.36
2022-11-24T01:38:22.852Z,4.28
2022-11-24T01:43:24.336Z,4.12
2022-11-24T01:48:41.036Z,4.03
2022-11-24T01:53:45.600Z,3.93
2022-11-24T01:58:48.994Z,3.83
2022-11-24T02:03:51.905Z,3.69
2022-11-24T02:09:00.588Z,3.58
2022-11-24T02:14:04.016Z,3.47
2022-11-24T02:19:17.215Z,3.33
2022-11-24T02:24:37.595Z,3.24
2022-11-24T02:29:40.726Z,3.14
2022-11-24T02:34:42.202Z,2.96
2022-11-24T02:39:43.684Z,2.89
2022-11-24T02:45:02.124Z,2.87
2022-11-24T02:50:09.817Z,2.82
2022-11-24T02:55:11.271Z,2.80
2022-11-24T03:00:13.167Z,2.98
2022-11-24T03:05:14.933Z,3.30
2022-11-24T03:10:16.787Z,3.28
2022-11-24T03:15:18.350Z,3.19
2022-11-24T03:20:19.799Z,3.06
2022-11-24T03:25:21.272Z,2.87
2022-11-24T03:30:22.737Z,2.76
2022-11-24T03:35:24.254Z,2.64
2022-11-24T03:40:25.746Z,2.55
2022-11-24T03:45:45.345Z,2.46
2022-11-24T03:50:56.107Z,2.56
2022-11-24T03:55:58.194Z,2.62
2022-11-24T04:00:59.748Z,2.65
2022-11-24T04:06:01.961Z,2.65
2022-11-24T04:11:03.561Z,2.71
2022-11-24T04:16:06.099Z,2.72
2022-11-24T04:21:07.581Z,2.70
2022-11-24T04:26:09.027Z,2.79
2022-11-24T04:31:10.654Z,2.87
2022-11-24T04:36:12.190Z,3.07
2022-11-24T04:41:13.632Z,3.15
2022-11-24T04:46:15.144Z,3.19
2022-11-24T04:51:16.793Z,3.32
2022-11-24T04:56:18.295Z,3.66
2022-11-24T05:01:19.824Z,3.66
2022-11-24T05:06:22.101Z,4.12
2022-11-24T05:11:23.578Z,4.35
2022-11-24T05:16:25.128Z,4.48
2022-11-24T05:21:27.652Z,4.63
2022-11-24T05:26:29.116Z,4.77
2022-11-24T05:31:30.884Z,4.82
2022-11-24T05:36:50.563Z,4.91
2022-11-24T05:41:52.199Z,4.93
2022-11-24T05:46:53.778Z,4.87
2022-11-24T05:51:55.293Z,4.88
2022-11-24T05:56:56.733Z,4.85
2022-11-24T06:01:58.494Z,4.85
2022-11-24T06:07:01.551Z,4.84
2022-11-24T06:12:03.468Z,4.84
2022-11-24T06:17:06.719Z,4.83
2022-11-24T06:22:08.195Z,4.74
2022-11-24T06:27:09.677Z,4.68
2022-11-24T06:32:11.178Z,4.67
2022-11-24T06:37:12.667Z,4.66
2022-11-24T06:42:18.494Z,4.69
2022-11-24T06:47:19.991Z,4.68
2022-11-24T06:52:21.445Z,4.74
2022-11-24T06:57:22.940Z,4.80
2022-11-24T07:02:24.488Z,4.88
2022-11-24T07:07:26.171Z,4.94
2022-11-24T07:12:29.127Z,4.95
2022-11-24T07:17:30.673Z,4.95
2022-11-24T07:22:32.490Z,4.90
2022-11-24T07:27:34.137Z,4.93
2022-11-24T07:32:35.646Z,5.00
2022-11-24T07:37:37.092Z,5.02
2022-11-24T07:42:38.536Z,5.10
2022-11-24T07:47:40.820Z,5.09
2022-11-24T07:52:42.299Z,5.07
2022-11-24T07:57:43.975Z,5.08
2022-11-24T08:02:45.626Z,5.08
2022-11-24T08:07:47.137Z,5.20
2022-11-24T08:12:48.635Z,5.27
2022-11-24T08:17:50.124Z,5.34
2022-11-24T08:22:51.559Z,5.41
2022-11-24T08:27:53.085Z,5.42
2022-11-24T08:32:54.616Z,5.48
2022-11-24T08:37:59.200Z,5.52
2022-11-24T08:43:04.705Z,5.59
2022-11-24T08:48:06.251Z,5.65
2022-11-24T08:53:07.681Z,5.76
2022-11-24T08:58:09.195Z,5.90
2022-11-24T09:03:12.079Z,5.90
2022-11-24T09:08:13.548Z,5.87
2022-11-24T09:13:14.974Z,5.96
2022-11-24T09:18:16.471Z,6.02
2022-11-24T09:23:18.006Z,6.12
2022-11-24T09:28:19.477Z,6.13
2022-11-24T09:33:20.927Z,6.27
2022-11-24T09:38:22.973Z,-147.53
2022-11-24T09:43:40.841Z,-147.53
2022-11-24T09:48:47.362Z,-147.53
2022-11-24T09:54:01.230Z,-147.53
2022-11-24T09:59:14.544Z,-147.53
2022-11-24T10:04:32.625Z,-147.53
2022-11-24T10:09:44.526Z,-147.53
2022-11-24T10:15:04.638Z,-147.53
2022-11-24T10:20:10.986Z,-147.53
2022-11-24T10:25:26.171Z,-147.53
2022-11-24T10:30:27.785Z,-147.53
2022-11-24T10:35:38.169Z,-147.53
2022-11-24T10:41:01.745Z,-147.53
2022-11-24T10:46:19.573Z,-147.53
2022-11-24T10:51:37.277Z,6.27
2022-11-24T10:56:43.051Z,9.17
2022-11-24T11:01:44.770Z,9.13
2022-11-24T11:06:46.335Z,9.28
2022-11-24T11:11:49.083Z,9.32
2022-11-24T11:16:56.506Z,9.33
2022-11-24T11:22:03.886Z,9.36
2022-11-24T11:27:17.830Z,9.00
2022-11-24T11:37:50.985Z,8.72
2022-11-24T11:43:12.665Z,8.63
2022-11-24T11:48:43.645Z,8.87
2022-11-24T11:54:18.377Z,9.24
2022-11-24T11:59:46.269Z,9.41
2022-11-24T12:05:00.167Z,9.46
2022-11-24T12:10:21.767Z,9.24
2022-11-24T12:15:26.037Z,9.18
2022-11-24T12:20:55.177Z,9.17
2022-11-24T12:26:09.423Z,9.18
2022-11-24T12:31:28.483Z,9.08
2022-11-24T12:36:56.020Z,9.02
2022-11-24T12:42:15.984Z,8.90
2022-11-24T12:47:28.754Z,8.82
2022-11-24T12:52:37.373Z,8.73
2022-11-24T12:57:55.734Z,8.70
2022-11-24T13:03:19.324Z,8.66
2022-11-24T13:08:21.826Z,8.65
2022-11-24T13:13:29.435Z,8.60
2022-11-24T13:18:53.447Z,8.59
2022-11-24T13:24:00.667Z,8.55
2022-11-24T13:29:13.325Z,8.57
2022-11-24T13:34:41.154Z,8.47
2022-11-24T13:40:07.866Z,8.46
2022-11-24T13:45:50.643Z,8.39
2022-11-24T13:50:54.804Z,8.30
2022-11-24T13:56:00.153Z,8.29
2022-11-24T14:01:15.093Z,-147.53
2022-11-24T14:06:28.073Z,8.29
2022-11-24T14:11:29.642Z,8.11
2022-11-24T14:16:31.153Z,8.07
2022-11-24T14:21:44.539Z,7.99
2022-11-24T14:26:46.965Z,7.93
2022-11-24T14:31:59.553Z,7.82
2022-11-24T14:37:01.782Z,7.74
2022-11-24T14:42:20.214Z,7.68
2022-11-24T14:47:38.391Z,7.59
2022-11-24T14:52:53.516Z,7.50
2022-11-24T14:57:55.369Z,7.37
2022-11-24T15:03:02.760Z,7.25
2022-11-24T15:08:04.474Z,7.19
2022-11-24T15:13:16.964Z,7.05
2022-11-24T15:18:33.282Z,6.86
2022-11-24T15:23:36.054Z,6.66
2022-11-24T15:28:38.364Z,6.52
2022-11-24T15:33:41.033Z,6.32
2022-11-24T15:38:42.816Z,6.16
2022-11-24T15:43:44.376Z,6.02
2022-11-24T15:48:46.089Z,5.92
2022-11-24T15:53:58.708Z,6.01
2022-11-24T15:59:04.052Z,6.05
2022-11-24T16:04:05.558Z,6.12
2022-11-24T16:09:12.431Z,6.17
2022-11-24T16:14:14.053Z,6.22
2022-11-24T16:19:15.827Z,6.29
2022-11-24T16:24:17.532Z,6.36
2022-11-24T16:29:20.821Z,6.44
2022-11-24T16:34:22.301Z,6.45
2022-11-24T16:39:23.778Z,6.46
2022-11-24T16:44:25.290Z,6.52
2022-11-24T16:49:26.745Z,6.55
2022-11-24T16:54:28.200Z,6.52
2022-11-24T16:59:29.647Z,6.48
2022-11-24T17:04:31.197Z,6.32
2022-11-24T17:09:37.393Z,6.13
2022-11-24T17:14:41.702Z,5.94
2022-11-24T17:19:43.747Z,5.69
2022-11-24T17:24:45.486Z,5.54
2022-11-24T17:29:46.966Z,5.39
2022-11-24T17:34:48.575Z,5.33
2022-11-24T17:40:12.519Z,5.31
2022-11-24T17:45:11.547Z,5.22
2022-11-24T17:50:13.039Z,5.07
2022-11-24T17:55:14.579Z,5.01
2022-11-24T18:00:16.390Z,4.93
2022-11-24T18:05:17.957Z,4.78
2022-11-24T18:10:19.796Z,4.70
2022-11-24T18:15:21.344Z,4.64
2022-11-24T18:20:22.853Z,4.63
2022-11-24T18:25:24.518Z,4.61
2022-11-24T18:30:26.003Z,4.58
2022-11-24T18:35:27.613Z,4.53
2022-11-24T18:40:29.082Z,4.56
2022-11-24T18:45:30.598Z,4.58
2022-11-24T18:50:33.121Z,4.50
2022-11-24T18:55:34.592Z,4.50
2022-11-24T19:00:36.430Z,4.46
2022-11-24T19:05:37.947Z,4.55
2022-11-24T19:10:39.703Z,4.76
2022-11-24T19:15:41.264Z,4.86
2022-11-24T19:20:42.714Z,4.91
2022-11-24T19:25:44.915Z,4.93
2022-11-24T19:30:46.424Z,5.04
2022-11-24T19:35:47.974Z,4.89
2022-11-24T19:40:49.414Z,4.80
2022-11-24T19:45:50.912Z,4.70
2022-11-24T19:50:59.147Z,4.67
2022-11-24T19:56:28.513Z,4.70
2022-11-24T20:01:39.224Z,4.69
2022-11-24T20:06:43.706Z,4.74
2022-11-24T20:11:45.825Z,4.73
2022-11-24T20:16:48.035Z,4.63
2022-11-24T20:21:50.168Z,4.57
2022-11-24T20:26:56.593Z,4.51
2022-11-24T20:31:58.195Z,4.43
2022-11-24T20:36:59.884Z,4.41
2022-11-24T20:42:01.299Z,4.37
2022-11-24T20:47:04.952Z,4.30
2022-11-24T20:52:06.415Z,4.25
2022-11-24T20:57:07.832Z,4.20
2022-11-24T21:02:10.293Z,4.17
2022-11-24T21:07:13.498Z,4.18
2022-11-24T21:12:14.984Z,4.13
2022-11-24T21:17:16.489Z,4.06
2022-11-24T21:22:17.968Z,4.15
2022-11-24T21:27:19.551Z,4.16
2022-11-24T21:32:21.007Z,4.13
2022-11-24T21:37:22.528Z,4.16
2022-11-24T21:42:24.008Z,4.18
2022-11-24T21:47:25.477Z,4.17
2022-11-24T21:52:26.907Z,4.26
2022-11-24T21:57:28.366Z,4.27
2022-11-24T22:02:29.850Z,4.22
2022-11-24T22:07:32.369Z,4.19
2022-11-24T22:12:33.880Z,4.13
2022-11-24T22:17:35.368Z,4.09
2022-11-24T22:22:36.815Z,4.05
2022-11-24T22:27:38.292Z,4.03
2022-11-24T22:32:39.747Z,4.00
2022-11-24T22:37:41.240Z,4.05
2022-11-24T22:42:42.655Z,4.02
2022-11-24T22:47:44.102Z,4.05
2022-11-24T22:52:45.520Z,4.07
2022-11-24T22:57:48.450Z,4.09
2022-11-24T23:02:50.264Z,4.11
2022-11-24T23:07:51.787Z,4.16
2022-11-24T23:12:55.129Z,4.10
2022-11-24T23:17:56.552Z,4.07
2022-11-24T23:22:59.909Z,4.10
2022-11-24T23:28:01.886Z,4.06
2022-11-24T23:33:03.409Z,4.09
2022-11-24T23:38:07.798Z,4.10
2022-11-24T23:43:09.588Z,4.07
2022-11-24T23:48:11.009Z,4.05
2022-11-24T23:53:12.839Z,4.00
2022-11-24T23:58:14.297Z,4.01
